Weather reports worldwide

Advertisment
Ecija, Spain (8395): temperature & dewpoint: 05.12.2019 09:00:00 - 11.12.2019 09:00:00 (CET)Ecija, Spain (8395): wind speed & gusts: 05.12.2019 09:00:00 - 11.12.2019 09:00:00 (CET)Ecija, Spain (8395): wind direction: 05.12.2019 09:00:00 - 11.12.2019 09:00:00 (CET)Ecija, Spain (8395): reduced air pressure: 05.12.2019 09:00:00 - 11.12.2019 09:00:00 (CET)Ecija, Spain (8395): precipitation: 05.12.2019 09:00:00 - 11.12.2019 09:00:00 (CET)
Date & Time tt [°C] td [°C] ff [km/h] ff [kn] fx [km/h] fx [kn] dd ppp [hPa] rr [mm]
11.12.2019 09:00:00 3,9 3,8 0 0 0 0 N 1027,9 0,0
11.12.2019 08:00:00 3,3 3,2 0 0 0 0 N 1027,4 0,0
11.12.2019 07:00:00 3,1 2,7 0 0 9 5 N 1027,1 -
11.12.2019 06:00:00 4,2 3,9 2 1 4 2 SSW 1026,7 0,0
11.12.2019 05:00:00 4,7 4,5 0 0 8 4 N 1026,6 0,0
11.12.2019 04:00:00 4,7 4,3 0 0 0 0 N 1026,9 0,0
11.12.2019 03:00:00 5,1 4,5 0 0 7 4 N 1027,1 0,0
11.12.2019 02:00:00 5,6 5,1 3 2 6 3 SSE 1027,3 0,0
11.12.2019 01:00:00 5,9 5,1 2 1 6 4 S 1027,4 -
11.12.2019 00:00:00 7,2 5,9 4 2 7 4 SSE 1027,6 0,0
10.12.2019 23:00:00 8,1 6,2 0 0 4 2 SE 1027,3 0,0
10.12.2019 22:00:00 8,4 6,5 0 0 0 0 N 1027,1 0,0
10.12.2019 21:00:00 9,2 6,7 0 0 10 5 ESE 1027,1 0,0
10.12.2019 20:00:00 11,6 6,7 8 4 12 7 SW 1026,8 0,0
10.12.2019 19:00:00 12,9 6,2 6 3 9 5 SW 1026,5 -
10.12.2019 18:00:00 15,6 6,2 3 1 7 4 WNW 1026,3 0,0
10.12.2019 17:00:00 18,1 6,2 4 2 11 6 NE 1026,2 0,0
10.12.2019 16:00:00 18,2 6,7 4 2 16 9 NNE 1026,3 0,0
10.12.2019 15:00:00 17,4 7,7 5 3 14 7 NNE 1026,8 0,0
10.12.2019 14:00:00 16,5 8,0 6 3 15 8 NE 1027,7 0,0
10.12.2019 13:00:00 13,7 9,3 1 1 10 5 WNW 1028,6 -
10.12.2019 12:00:00 12,0 8,8 1 1 7 4 SSE 1029,7 0,0
10.12.2019 11:00:00 9,3 8,3 0 0 5 3 E 1030,1 0,0
10.12.2019 10:00:00 6,0 5,8 1 1 5 3 SSE 1030,0 0,1
10.12.2019 09:00:00 4,7 4,6 0 0 5 3 N 1029,8 0,0
10.12.2019 08:00:00 4,9 4,8 1 1 7 4 SSW 1029,8 0,0
10.12.2019 07:00:00 6,0 5,8 2 1 9 5 N 1029,8 -
10.12.2019 06:00:00 6,2 6,1 8 5 11 6 NNW 1029,7 0,0
10.12.2019 05:00:00 7,2 7,0 6 3 8 4 NNW 1029,5 0,0
10.12.2019 04:00:00 7,1 7,0 5 3 8 5 NNW 1030,1 0,0
10.12.2019 03:00:00 7,2 7,0 2 1 5 3 NNW 1030,1 0,0
10.12.2019 02:00:00 8,0 7,3 0 0 0 0 N 1030,2 0,0
10.12.2019 01:00:00 8,5 7,8 0 0 3 2 N 1030,6 -
10.12.2019 00:00:00 9,6 9,3 0 0 4 2 SSW 1030,8 0,0
09.12.2019 23:00:00 10,7 9,6 0 0 4 2 N 1030,4 0,0
09.12.2019 22:00:00 12,1 10,3 0 0 1 1 N 1030,1 0,0
09.12.2019 21:00:00 12,6 10,6 1 1 6 4 NNW 1029,9 0,0
09.12.2019 20:00:00 13,4 10,4 4 2 9 5 W 1029,6 0,0
09.12.2019 19:00:00 14,3 10,3 4 2 6 3 NW 1029,6 -
09.12.2019 18:00:00 16,0 10,5 3 2 10 5 N 1029,3 0,0
09.12.2019 17:00:00 17,5 10,4 4 2 11 6 ENE 1028,9 0,0
09.12.2019 16:00:00 17,6 11,0 5 3 12 7 N 1029,1 0,0
09.12.2019 15:00:00 17,0 10,9 3 2 17 9 NNE 1029,2 0,0
09.12.2019 14:00:00 16,4 11,6 4 2 12 7 NE 1030,1 0,0
09.12.2019 13:00:00 15,7 11,9 5 3 9 5 NE 1030,8 -
09.12.2019 12:00:00 14,3 11,4 3 2 7 4 N 1031,4 0,0
09.12.2019 11:00:00 13,3 11,3 0 0 4 2 SSE 1031,6 0,0
09.12.2019 10:00:00 12,5 10,8 0 0 1 1 N 1031,0 0,0
09.12.2019 09:00:00 12,2 11,2 0 0 2 1 S 1030,3 0,0
09.12.2019 08:00:00 12,2 11,0 1 0 3 2 NW 1030,0 0,0
09.12.2019 07:00:00 12,2 11,0 0 0 3 2 N 1029,2 -
09.12.2019 06:00:00 12,2 10,8 0 0 5 3 N 1028,9 0,0
09.12.2019 05:00:00 12,1 10,6 0 0 5 3 N 1028,9 0,0
09.12.2019 04:00:00 12,1 10,6 1 0 5 3 ESE 1028,9 0,0
09.12.2019 03:00:00 12,3 10,8 0 0 2 1 N 1028,9 0,0
09.12.2019 02:00:00 12,3 10,8 0 0 3 2 S 1028,9 0,0
09.12.2019 01:00:00 12,0 10,5 3 1 6 3 ESE 1029,1 -
09.12.2019 00:00:00 12,2 10,0 2 1 7 4 E 1029,0 0,0
08.12.2019 23:00:00 12,5 10,0 0 0 4 2 N 1028,7 0,0
08.12.2019 22:00:00 12,1 9,7 0 0 7 4 N 1028,4 0,0
08.12.2019 21:00:00 12,2 9,6 8 4 10 5 SW 1027,6 0,0
08.12.2019 20:00:00 13,3 9,2 3 2 5 3 WNW 1027,8 0,0
08.12.2019 19:00:00 14,5 9,6 4 2 6 3 NW 1027,6 -
08.12.2019 18:00:00 16,2 9,8 1 1 10 5 W 1026,8 0,0
08.12.2019 17:00:00 17,2 8,9 8 5 11 6 NW 1026,5 0,0
08.12.2019 16:00:00 17,3 8,7 4 2 10 5 W 1026,3 0,0
08.12.2019 15:00:00 17,2 9,3 1 1 8 4 NW 1026,2 0,0
08.12.2019 14:00:00 16,1 8,8 3 1 11 6 SE 1026,8 0,0
08.12.2019 13:00:00 14,3 9,3 5 3 10 5 SE 1027,7 -
08.12.2019 12:00:00 12,4 8,9 2 1 10 6 E 1029,0 0,0
08.12.2019 11:00:00 9,3 7,7 0 0 10 5 N 1028,8 0,0
08.12.2019 10:00:00 6,0 5,6 0 0 4 2 NNE 1028,8 0,0
08.12.2019 09:00:00 4,5 4,3 0 0 0 0 N 1028,2 0,0
08.12.2019 08:00:00 3,9 3,6 0 0 0 0 N 1028,0 0,0
08.12.2019 07:00:00 5,0 4,8 0 0 0 0 N 1027,4 -
08.12.2019 06:00:00 4,7 4,6 0 0 6 3 SSW 1026,9 0,0
08.12.2019 05:00:00 5,4 5,3 0 0 0 0 N 1027,2 0,0
08.12.2019 04:00:00 5,4 5,3 0 0 5 3 N 1027,1 0,0
08.12.2019 03:00:00 6,0 5,8 3 2 6 4 SE 1027,2 0,0
08.12.2019 02:00:00 6,2 6,1 0 0 4 2 N 1027,1 0,0
08.12.2019 01:00:00 7,2 7,0 3 2 6 3 S 1027,3 -
08.12.2019 00:00:00 7,5 6,8 0 0 3 2 N 1026,9 0,0
07.12.2019 23:00:00 8,4 6,8 0 0 4 2 N 1026,5 0,0
07.12.2019 22:00:00 9,7 7,4 3 2 7 4 SSW 1026,1 0,0
07.12.2019 21:00:00 11,0 7,1 0 0 5 3 N 1025,6 0,0
07.12.2019 20:00:00 11,9 7,8 1 0 4 2 NNW 1025,1 0,0
07.12.2019 19:00:00 13,7 7,7 5 3 8 5 WNW 1024,4 -
07.12.2019 18:00:00 16,1 8,4 4 2 6 4 NW 1023,7 0,0
07.12.2019 17:00:00 17,8 8,4 5 3 8 4 NNW 1023,2 0,0
07.12.2019 16:00:00 18,3 8,3 3 1 9 5 NNE 1022,7 0,0
07.12.2019 15:00:00 18,2 9,3 3 1 9 5 NE 1022,9 0,0
07.12.2019 14:00:00 17,1 9,0 2 1 10 5 NE 1023,4 0,0
07.12.2019 13:00:00 15,7 9,6 3 2 7 4 N 1024,4 -
07.12.2019 12:00:00 13,6 8,8 3 2 8 4 ENE 1025,2 0,0
07.12.2019 11:00:00 10,7 8,1 1 1 4 2 N 1025,3 0,0
07.12.2019 10:00:00 8,8 7,4 0 0 3 1 N 1024,9 0,0
07.12.2019 09:00:00 6,0 5,8 0 0 7 4 N 1024,7 0,0
07.12.2019 08:00:00 5,8 5,6 0 0 3 2 N 1024,1 0,0
07.12.2019 07:00:00 5,7 5,6 0 0 8 4 N 1023,2 -
07.12.2019 06:00:00 5,8 5,6 0 0 4 2 N 1023,2 0,0
07.12.2019 05:00:00 6,0 5,8 2 1 6 4 NNW 1023,2 0,0
07.12.2019 04:00:00 5,9 5,8 1 1 5 3 SSW 1023,2 0,0
07.12.2019 03:00:00 6,6 5,9 1 1 5 3 SSE 1022,9 0,0
07.12.2019 02:00:00 7,2 6,4 3 1 5 3 N 1022,8 0,0
07.12.2019 01:00:00 8,5 7,4 3 2 6 3 SW 1022,5 -
07.12.2019 00:00:00 8,9 7,3 0 0 0 0 N 1022,4 0,0
06.12.2019 23:00:00 9,3 7,4 3 2 6 3 N 1021,9 0,0
06.12.2019 22:00:00 10,5 8,1 0 0 6 3 N 1021,4 0,0
06.12.2019 21:00:00 12,3 8,9 0 0 5 3 N 1021,1 0,0
06.12.2019 20:00:00 13,2 8,7 2 1 6 3 S 1020,4 0,0
06.12.2019 19:00:00 14,9 9,3 0 0 6 3 SSW 1020,0 -
06.12.2019 18:00:00 17,1 9,0 5 3 11 6 ENE 1019,4 0,0
06.12.2019 17:00:00 18,4 8,4 6 3 13 7 NE 1018,8 0,0
06.12.2019 16:00:00 18,6 8,0 6 3 14 7 ENE 1018,7 0,0
06.12.2019 15:00:00 17,9 8,8 5 3 16 8 E 1018,9 0,0
06.12.2019 14:00:00 16,9 8,5 6 3 14 8 ENE 1019,6 0,0
06.12.2019 13:00:00 16,0 8,3 10 5 18 10 ESE 1020,2 -
06.12.2019 12:00:00 14,7 8,1 14 8 20 11 E 1021,0 0,0
06.12.2019 11:00:00 13,2 7,1 14 7 21 11 ENE 1021,7 0,0
06.12.2019 10:00:00 10,1 6,8 2 1 5 3 NNE 1021,3 0,0
06.12.2019 09:00:00 6,5 5,3 1 0 6 3 N 1021,0 0,0
06.12.2019 08:00:00 7,1 5,8 2 1 8 4 N 1020,2 0,0
06.12.2019 07:00:00 8,2 6,1 4 2 8 4 NNE 1019,3 -
06.12.2019 06:00:00 7,9 6,2 1 0 8 4 N 1019,0 0,0
06.12.2019 05:00:00 8,2 6,4 1 1 13 7 SW 1018,9 0,0
06.12.2019 04:00:00 8,6 6,7 0 0 7 4 WNW 1018,4 0,0
06.12.2019 03:00:00 9,7 7,0 1 1 7 4 ENE 1018,2 0,0
06.12.2019 02:00:00 9,8 7,0 3 2 13 7 ENE 1018,2 0,0
06.12.2019 01:00:00 8,8 7,4 4 2 11 6 NNW 1018,6 -
06.12.2019 00:00:00 9,0 7,4 1 0 5 3 NNW 1018,5 0,0
05.12.2019 23:00:00 10,9 8,5 3 2 4 2 S 1018,1 0,0
05.12.2019 22:00:00 12,0 8,7 3 2 8 5 NE 1017,7 0,0
05.12.2019 21:00:00 11,6 8,7 0 0 10 5 N 1017,6 0,0
05.12.2019 20:00:00 12,4 8,9 8 4 12 6 S 1016,8 0,0
05.12.2019 19:00:00 13,2 8,7 2 1 9 5 N 1015,9 -
05.12.2019 18:00:00 15,4 8,4 7 4 18 10 NE 1015,4 0,0
05.12.2019 17:00:00 16,4 8,1 11 6 22 12 ENE 1014,6 0,0
05.12.2019 16:00:00 17,1 7,4 10 5 21 11 ENE 1014,1 0,0
05.12.2019 15:00:00 16,9 7,8 12 7 29 15 ENE 1014,2 0,0
05.12.2019 14:00:00 16,8 9,4 14 8 27 15 E 1014,5 0,0
05.12.2019 13:00:00 15,6 9,0 17 9 26 14 ENE 1015,1 -
05.12.2019 12:00:00 13,7 8,4 6 3 13 7 E 1015,8 0,0
05.12.2019 11:00:00 11,5 7,3 1 1 4 2 ENE 1015,6 0,0
05.12.2019 10:00:00 8,0 5,9 0 0 7 4 W 1015,6 0,0
05.12.2019 09:00:00 5,7 5,3 2 1 4 2 WSW 1015,0 0,0

tt = temperature
td = dewpoint
ff = wind speed
fx = gusts
dd = wind direction
ppp = reduced air pressure
rr = precipitation

Next stations